sensor_id;sensor_type;location;lat;lon;timestamp;temperature;humidity
23550;DHT22;11953;49.010;8.608;2022-12-18T00:01:47;-5.60;99.90
23550;DHT22;11953;49.010;8.608;2022-12-18T00:04:35;-5.60;99.90
23550;DHT22;11953;49.010;8.608;2022-12-18T00:07:22;-5.70;99.90
23550;DHT22;11953;49.010;8.608;2022-12-18T00:10:09;-5.70;99.90
23550;DHT22;11953;49.010;8.608;2022-12-18T00:12:59;-5.80;99.90
23550;DHT22;11953;49.010;8.608;2022-12-18T00:15:52;-5.80;99.90
23550;DHT22;11953;49.010;8.608;2022-12-18T00:18:41;-5.80;99.90
23550;DHT22;11953;49.010;8.608;2022-12-18T00:21:30;-5.70;99.90
23550;DHT22;11953;49.010;8.608;2022-12-18T00:24:18;-5.70;99.90
23550;DHT22;11953;49.010;8.608;2022-12-18T00:27:05;-5.80;99.90
23550;DHT22;11953;49.010;8.608;2022-12-18T00:29:51;-5.80;99.90
23550;DHT22;11953;49.010;8.608;2022-12-18T00:32:37;-5.80;99.90
23550;DHT22;11953;49.010;8.608;2022-12-18T00:35:24;-5.80;99.90
23550;DHT22;11953;49.010;8.608;2022-12-18T00:38:12;-5.80;99.90
23550;DHT22;11953;49.010;8.608;2022-12-18T00:40:58;-5.70;99.90
23550;DHT22;11953;49.010;8.608;2022-12-18T00:43:45;-5.70;99.90
23550;DHT22;11953;49.010;8.608;2022-12-18T00:46:31;-5.90;99.90
23550;DHT22;11953;49.010;8.608;2022-12-18T00:49:19;-5.90;99.90
23550;DHT22;11953;49.010;8.608;2022-12-18T00:52:06;-6.00;99.90
23550;DHT22;11953;49.010;8.608;2022-12-18T00:54:54;-6.00;99.90
23550;DHT22;11953;49.010;8.608;2022-12-18T00:57:40;-6.10;99.90
23550;DHT22;11953;49.010;8.608;2022-12-18T01:00:27;-6.20;99.90
23550;DHT22;11953;49.010;8.608;2022-12-18T01:03:13;-6.20;99.90
23550;DHT22;11953;49.010;8.608;2022-12-18T01:06:05;-6.20;99.90
23550;DHT22;11953;49.010;8.608;2022-12-18T01:08:52;-6.00;99.90
23550;DHT22;11953;49.010;8.608;2022-12-18T01:11:40;-5.90;99.90
23550;DHT22;11953;49.010;8.608;2022-12-18T01:14:30;-5.90;99.90
23550;DHT22;11953;49.010;8.608;2022-12-18T01:17:17;-5.90;99.90
23550;DHT22;11953;49.010;8.608;2022-12-18T01:20:04;-5.90;99.90
23550;DHT22;11953;49.010;8.608;2022-12-18T01:22:51;-6.00;99.90
23550;DHT22;11953;49.010;8.608;2022-12-18T01:25:37;-6.00;99.90
23550;DHT22;11953;49.010;8.608;2022-12-18T01:28:29;-5.90;99.90
23550;DHT22;11953;49.010;8.608;2022-12-18T01:31:18;-6.00;99.90
23550;DHT22;11953;49.010;8.608;2022-12-18T01:34:05;-6.00;99.90
23550;DHT22;11953;49.010;8.608;2022-12-18T01:36:53;-6.00;99.90
23550;DHT22;11953;49.010;8.608;2022-12-18T01:39:39;-6.00;99.90
23550;DHT22;11953;49.010;8.608;2022-12-18T01:42:26;-6.00;99.90
23550;DHT22;11953;49.010;8.608;2022-12-18T01:45:26;-6.00;99.90
23550;DHT22;11953;49.010;8.608;2022-12-18T01:48:13;-6.10;99.90
23550;DHT22;11953;49.010;8.608;2022-12-18T01:51:01;-6.20;99.90
23550;DHT22;11953;49.010;8.608;2022-12-18T01:53:48;-6.10;99.90
23550;DHT22;11953;49.010;8.608;2022-12-18T01:56:35;-6.00;99.90
23550;DHT22;11953;49.010;8.608;2022-12-18T01:59:21;-6.00;99.90
23550;DHT22;11953;49.010;8.608;2022-12-18T02:02:09;-6.00;99.90
23550;DHT22;11953;49.010;8.608;2022-12-18T02:04:58;-6.00;99.90
23550;DHT22;11953;49.010;8.608;2022-12-18T02:07:51;-5.90;99.90
23550;DHT22;11953;49.010;8.608;2022-12-18T02:10:46;-5.90;99.90
23550;DHT22;11953;49.010;8.608;2022-12-18T02:13:41;-6.10;99.90
23550;DHT22;11953;49.010;8.608;2022-12-18T02:16:38;-6.30;99.90
23550;DHT22;11953;49.010;8.608;2022-12-18T02:19:39;-6.20;99.90
23550;DHT22;11953;49.010;8.608;2022-12-18T02:22:33;-6.10;99.90
23550;DHT22;11953;49.010;8.608;2022-12-18T02:25:38;-6.20;99.90
23550;DHT22;11953;49.010;8.608;2022-12-18T02:28:31;-6.20;99.90
23550;DHT22;11953;49.010;8.608;2022-12-18T02:31:25;-6.10;99.90
23550;DHT22;11953;49.010;8.608;2022-12-18T02:34:12;-6.00;99.90
23550;DHT22;11953;49.010;8.608;2022-12-18T02:37:02;-6.00;99.90
23550;DHT22;11953;49.010;8.608;2022-12-18T02:39:53;-6.00;99.90
23550;DHT22;11953;49.010;8.608;2022-12-18T02:42:41;-5.90;99.90
23550;DHT22;11953;49.010;8.608;2022-12-18T02:45:33;-6.00;99.90
23550;DHT22;11953;49.010;8.608;2022-12-18T02:48:24;-6.10;99.90
23550;DHT22;11953;49.010;8.608;2022-12-18T02:51:18;-6.10;99.90
23550;DHT22;11953;49.010;8.608;2022-12-18T02:54:23;-6.10;99.90
23550;DHT22;11953;49.010;8.608;2022-12-18T02:57:16;-6.00;99.90
23550;DHT22;11953;49.010;8.608;2022-12-18T03:00:08;-5.90;99.90
23550;DHT22;11953;49.010;8.608;2022-12-18T03:03:02;-5.90;99.90
23550;DHT22;11953;49.010;8.608;2022-12-18T03:05:56;-6.00;99.90
23550;DHT22;11953;49.010;8.608;2022-12-18T03:08:47;-6.20;99.90
23550;DHT22;11953;49.010;8.608;2022-12-18T03:11:39;-6.30;99.90
23550;DHT22;11953;49.010;8.608;2022-12-18T03:14:45;-6.30;99.90
23550;DHT22;11953;49.010;8.608;2022-12-18T03:17:36;-6.40;99.90
23550;DHT22;11953;49.010;8.608;2022-12-18T03:20:29;-6.40;99.90
23550;DHT22;11953;49.010;8.608;2022-12-18T03:23:19;-6.40;99.90
23550;DHT22;11953;49.010;8.608;2022-12-18T03:26:11;-6.30;99.90
23550;DHT22;11953;49.010;8.608;2022-12-18T03:29:04;-6.30;99.90
23550;DHT22;11953;49.010;8.608;2022-12-18T03:31:56;-6.20;99.90
23550;DHT22;11953;49.010;8.608;2022-12-18T03:34:49;-6.30;99.90
23550;DHT22;11953;49.010;8.608;2022-12-18T03:37:41;-6.40;99.90
23550;DHT22;11953;49.010;8.608;2022-12-18T03:40:34;-6.40;99.90
23550;DHT22;11953;49.010;8.608;2022-12-18T03:43:31;-6.50;99.90
23550;DHT22;11953;49.010;8.608;2022-12-18T03:46:26;-6.60;99.90
23550;DHT22;11953;49.010;8.608;2022-12-18T03:49:17;-6.60;99.90
23550;DHT22;11953;49.010;8.608;2022-12-18T03:52:09;-6.40;99.90
23550;DHT22;11953;49.010;8.608;2022-12-18T03:55:01;-6.40;99.90
23550;DHT22;11953;49.010;8.608;2022-12-18T03:57:50;-6.40;99.90
23550;DHT22;11953;49.010;8.608;2022-12-18T04:00:39;-6.40;99.90
23550;DHT22;11953;49.010;8.608;2022-12-18T04:03:29;-6.50;99.90
23550;DHT22;11953;49.010;8.608;2022-12-18T04:06:16;-6.50;99.90
23550;DHT22;11953;49.010;8.608;2022-12-18T04:09:04;-6.50;99.90
23550;DHT22;11953;49.010;8.608;2022-12-18T04:11:57;-6.50;99.90
23550;DHT22;11953;49.010;8.608;2022-12-18T04:14:44;-6.50;99.90
23550;DHT22;11953;49.010;8.608;2022-12-18T04:17:31;-6.50;99.90
23550;DHT22;11953;49.010;8.608;2022-12-18T04:20:19;-6.50;99.90
23550;DHT22;11953;49.010;8.608;2022-12-18T04:23:06;-6.50;99.90
23550;DHT22;11953;49.010;8.608;2022-12-18T04:25:53;-6.60;99.90
23550;DHT22;11953;49.010;8.608;2022-12-18T04:28:54;-6.60;99.90
23550;DHT22;11953;49.010;8.608;2022-12-18T04:31:41;-6.60;99.90
23550;DHT22;11953;49.010;8.608;2022-12-18T04:34:29;-6.60;99.90
23550;DHT22;11953;49.010;8.608;2022-12-18T04:37:16;-6.70;99.90
23550;DHT22;11953;49.010;8.608;2022-12-18T04:40:05;-6.70;99.90
23550;DHT22;11953;49.010;8.608;2022-12-18T04:42:58;-6.60;99.90
23550;DHT22;11953;49.010;8.608;2022-12-18T04:45:46;-6.60;99.90
23550;DHT22;11953;49.010;8.608;2022-12-18T04:48:33;-6.70;99.90
23550;DHT22;11953;49.010;8.608;2022-12-18T04:51:20;-6.70;99.90
23550;DHT22;11953;49.010;8.608;2022-12-18T04:54:10;-6.60;99.90
23550;DHT22;11953;49.010;8.608;2022-12-18T04:56:57;-6.60;99.90
23550;DHT22;11953;49.010;8.608;2022-12-18T04:59:44;-6.70;99.90
23550;DHT22;11953;49.010;8.608;2022-12-18T05:02:32;-6.80;99.90
23550;DHT22;11953;49.010;8.608;2022-12-18T05:05:19;-6.60;99.90
23550;DHT22;11953;49.010;8.608;2022-12-18T05:08:06;-6.60;99.90
23550;DHT22;11953;49.010;8.608;2022-12-18T05:10:58;-6.60;99.90
23550;DHT22;11953;49.010;8.608;2022-12-18T05:13:45;-6.70;99.90
23550;DHT22;11953;49.010;8.608;2022-12-18T05:16:32;-6.60;99.90
23550;DHT22;11953;49.010;8.608;2022-12-18T05:19:20;-6.70;99.90
23550;DHT22;11953;49.010;8.608;2022-12-18T05:22:07;-6.60;99.90
23550;DHT22;11953;49.010;8.608;2022-12-18T05:24:54;-6.60;99.90
23550;DHT22;11953;49.010;8.608;2022-12-18T05:27:40;-6.60;99.90
23550;DHT22;11953;49.010;8.608;2022-12-18T05:30:27;-6.50;99.90
23550;DHT22;11953;49.010;8.608;2022-12-18T05:33:13;-6.50;99.90
23550;DHT22;11953;49.010;8.608;2022-12-18T05:36:06;-6.60;99.90
23550;DHT22;11953;49.010;8.608;2022-12-18T05:38:53;-6.50;99.90
23550;DHT22;11953;49.010;8.608;2022-12-18T05:41:39;-6.70;99.90
23550;DHT22;11953;49.010;8.608;2022-12-18T05:44:27;-6.60;99.90
23550;DHT22;11953;49.010;8.608;2022-12-18T05:47:13;-6.60;99.90
23550;DHT22;11953;49.010;8.608;2022-12-18T05:50:00;-6.70;99.90
23550;DHT22;11953;49.010;8.608;2022-12-18T05:52:48;-6.70;99.90
23550;DHT22;11953;49.010;8.608;2022-12-18T05:55:36;-6.80;99.90
23550;DHT22;11953;49.010;8.608;2022-12-18T05:58:23;-6.80;99.90
23550;DHT22;11953;49.010;8.608;2022-12-18T06:01:12;-6.80;99.90
23550;DHT22;11953;49.010;8.608;2022-12-18T06:03:59;-6.80;99.90
23550;DHT22;11953;49.010;8.608;2022-12-18T06:06:47;-6.80;99.90
23550;DHT22;11953;49.010;8.608;2022-12-18T06:09:34;-6.80;99.90
23550;DHT22;11953;49.010;8.608;2022-12-18T06:12:21;-6.80;99.90
23550;DHT22;11953;49.010;8.608;2022-12-18T06:15:08;-6.80;99.90
23550;DHT22;11953;49.010;8.608;2022-12-18T06:17:55;-6.80;99.90
23550;DHT22;11953;49.010;8.608;2022-12-18T06:20:42;-6.70;99.90
23550;DHT22;11953;49.010;8.608;2022-12-18T06:23:29;-6.70;99.90
23550;DHT22;11953;49.010;8.608;2022-12-18T06:26:16;-6.80;99.90
23550;DHT22;11953;49.010;8.608;2022-12-18T06:29:10;-7.00;99.90
23550;DHT22;11953;49.010;8.608;2022-12-18T06:31:56;-6.80;99.90
23550;DHT22;11953;49.010;8.608;2022-12-18T06:34:43;-6.70;99.90
23550;DHT22;11953;49.010;8.608;2022-12-18T06:37:30;-6.60;99.90
23550;DHT22;11953;49.010;8.608;2022-12-18T06:40:17;-6.50;99.90
23550;DHT22;11953;49.010;8.608;2022-12-18T06:43:06;-6.40;99.90
23550;DHT22;11953;49.010;8.608;2022-12-18T06:46:00;-6.30;99.90
23550;DHT22;11953;49.010;8.608;2022-12-18T06:48:48;-6.30;99.90
23550;DHT22;11953;49.010;8.608;2022-12-18T06:51:35;-6.30;99.90
23550;DHT22;11953;49.010;8.608;2022-12-18T06:54:22;-6.30;99.90
23550;DHT22;11953;49.010;8.608;2022-12-18T06:57:09;-6.30;99.90
23550;DHT22;11953;49.010;8.608;2022-12-18T06:59:57;-6.30;99.90
23550;DHT22;11953;49.010;8.608;2022-12-18T07:02:44;-6.30;99.90
23550;DHT22;11953;49.010;8.608;2022-12-18T07:05:32;-6.40;99.90
23550;DHT22;11953;49.010;8.608;2022-12-18T07:08:18;-6.30;99.90
23550;DHT22;11953;49.010;8.608;2022-12-18T07:11:05;-6.30;99.90
23550;DHT22;11953;49.010;8.608;2022-12-18T07:13:52;-6.30;99.90
23550;DHT22;11953;49.010;8.608;2022-12-18T07:16:41;-6.30;99.90
23550;DHT22;11953;49.010;8.608;2022-12-18T07:19:28;-6.40;99.90
23550;DHT22;11953;49.010;8.608;2022-12-18T07:22:16;-6.60;99.90
23550;DHT22;11953;49.010;8.608;2022-12-18T07:25:02;-6.50;99.90
23550;DHT22;11953;49.010;8.608;2022-12-18T07:27:49;-6.50;99.90
23550;DHT22;11953;49.010;8.608;2022-12-18T07:30:37;-6.60;99.90
23550;DHT22;11953;49.010;8.608;2022-12-18T07:33:26;-6.60;99.90
23550;DHT22;11953;49.010;8.608;2022-12-18T07:36:14;-6.60;99.90
23550;DHT22;11953;49.010;8.608;2022-12-18T07:39:00;-6.60;99.90
23550;DHT22;11953;49.010;8.608;2022-12-18T07:41:47;-6.60;99.90
23550;DHT22;11953;49.010;8.608;2022-12-18T07:44:53;-6.70;99.90
23550;DHT22;11953;49.010;8.608;2022-12-18T07:47:40;-6.80;99.90
23550;DHT22;11953;49.010;8.608;2022-12-18T07:50:28;-6.70;99.90
23550;DHT22;11953;49.010;8.608;2022-12-18T07:53:15;-6.80;99.90
23550;DHT22;11953;49.010;8.608;2022-12-18T07:56:04;-6.70;99.90
23550;DHT22;11953;49.010;8.608;2022-12-18T07:59:11;-6.70;99.90
23550;DHT22;11953;49.010;8.608;2022-12-18T08:01:57;-6.60;99.90
23550;DHT22;11953;49.010;8.608;2022-12-18T08:04:44;-6.60;99.90
23550;DHT22;11953;49.010;8.608;2022-12-18T08:07:32;-6.70;99.90
23550;DHT22;11953;49.010;8.608;2022-12-18T08:10:20;-6.50;99.90
23550;DHT22;11953;49.010;8.608;2022-12-18T08:13:06;-6.40;99.90
23550;DHT22;11953;49.010;8.608;2022-12-18T08:15:57;-6.40;99.90
23550;DHT22;11953;49.010;8.608;2022-12-18T08:18:43;-6.40;99.90
23550;DHT22;11953;49.010;8.608;2022-12-18T08:21:30;-6.40;99.90
23550;DHT22;11953;49.010;8.608;2022-12-18T08:24:18;-6.40;99.90
23550;DHT22;11953;49.010;8.608;2022-12-18T08:27:05;-6.40;99.90
23550;DHT22;11953;49.010;8.608;2022-12-18T08:30:12;-6.30;99.90
23550;DHT22;11953;49.010;8.608;2022-12-18T08:32:59;-6.10;99.90
23550;DHT22;11953;49.010;8.608;2022-12-18T08:35:45;-5.90;99.90
23550;DHT22;11953;49.010;8.608;2022-12-18T08:38:32;-5.60;99.90
23550;DHT22;11953;49.010;8.608;2022-12-18T08:41:20;-5.30;99.90
23550;DHT22;11953;49.010;8.608;2022-12-18T08:44:07;-5.10;99.90
23550;DHT22;11953;49.010;8.608;2022-12-18T08:47:20;-4.80;99.90
23550;DHT22;11953;49.010;8.608;2022-12-18T08:50:08;-4.80;99.90
23550;DHT22;11953;49.010;8.608;2022-12-18T08:52:56;-4.80;99.90
23550;DHT22;11953;49.010;8.608;2022-12-18T08:55:43;-4.40;99.90
23550;DHT22;11953;49.010;8.608;2022-12-18T08:58:36;-4.60;99.90
23550;DHT22;11953;49.010;8.608;2022-12-18T09:01:22;-4.70;99.90
23550;DHT22;11953;49.010;8.608;2022-12-18T09:04:09;-4.70;99.90
23550;DHT22;11953;49.010;8.608;2022-12-18T09:06:56;-4.40;99.90
23550;DHT22;11953;49.010;8.608;2022-12-18T09:09:43;-4.40;99.90
23550;DHT22;11953;49.010;8.608;2022-12-18T09:12:30;-4.50;99.90
23550;DHT22;11953;49.010;8.608;2022-12-18T09:15:18;-4.50;99.90
23550;DHT22;11953;49.010;8.608;2022-12-18T09:18:05;-4.80;99.90
23550;DHT22;11953;49.010;8.608;2022-12-18T09:20:52;-5.00;99.90
23550;DHT22;11953;49.010;8.608;2022-12-18T09:23:39;-4.80;99.90
23550;DHT22;11953;49.010;8.608;2022-12-18T09:26:26;-4.80;99.90
23550;DHT22;11953;49.010;8.608;2022-12-18T09:29:14;-4.70;99.90
23550;DHT22;11953;49.010;8.608;2022-12-18T09:32:05;-4.70;99.90
23550;DHT22;11953;49.010;8.608;2022-12-18T09:34:51;-4.70;99.90
23550;DHT22;11953;49.010;8.608;2022-12-18T09:37:38;-4.60;99.90
23550;DHT22;11953;49.010;8.608;2022-12-18T09:40:26;-4.70;99.90
23550;DHT22;11953;49.010;8.608;2022-12-18T09:43:18;-4.50;99.90
23550;DHT22;11953;49.010;8.608;2022-12-18T09:46:07;-4.40;99.90
23550;DHT22;11953;49.010;8.608;2022-12-18T09:48:59;-4.30;99.90
23550;DHT22;11953;49.010;8.608;2022-12-18T09:51:49;-4.20;99.90
23550;DHT22;11953;49.010;8.608;2022-12-18T09:54:42;-4.20;99.90
23550;DHT22;11953;49.010;8.608;2022-12-18T09:57:32;-4.10;99.90
23550;DHT22;11953;49.010;8.608;2022-12-18T10:00:21;-4.00;99.90
23550;DHT22;11953;49.010;8.608;2022-12-18T10:03:10;-4.10;99.90
23550;DHT22;11953;49.010;8.608;2022-12-18T10:06:04;-4.00;99.90
23550;DHT22;11953;49.010;8.608;2022-12-18T10:08:56;-3.90;99.90
23550;DHT22;11953;49.010;8.608;2022-12-18T10:11:51;-3.90;99.90
23550;DHT22;11953;49.010;8.608;2022-12-18T10:14:46;-3.70;99.90
23550;DHT22;11953;49.010;8.608;2022-12-18T10:17:41;-3.50;99.90
23550;DHT22;11953;49.010;8.608;2022-12-18T10:20:37;-3.50;99.90
23550;DHT22;11953;49.010;8.608;2022-12-18T10:23:30;-3.30;99.90
23550;DHT22;11953;49.010;8.608;2022-12-18T10:26:18;-3.20;99.90
23550;DHT22;11953;49.010;8.608;2022-12-18T10:29:09;-3.00;99.90
23550;DHT22;11953;49.010;8.608;2022-12-18T10:31:57;-2.80;99.90
23550;DHT22;11953;49.010;8.608;2022-12-18T10:34:47;-2.70;99.90
23550;DHT22;11953;49.010;8.608;2022-12-18T10:38:03;-2.50;99.90
23550;DHT22;11953;49.010;8.608;2022-12-18T10:40:54;-2.50;99.90
23550;DHT22;11953;49.010;8.608;2022-12-18T10:43:41;-2.40;99.90
23550;DHT22;11953;49.010;8.608;2022-12-18T10:46:28;-2.40;99.90
23550;DHT22;11953;49.010;8.608;2022-12-18T10:49:21;-2.30;99.90
23550;DHT22;11953;49.010;8.608;2022-12-18T10:52:18;-2.20;99.90
23550;DHT22;11953;49.010;8.608;2022-12-18T10:55:16;-2.20;99.90
23550;DHT22;11953;49.010;8.608;2022-12-18T10:58:18;-2.20;99.90
23550;DHT22;11953;49.010;8.608;2022-12-18T11:01:13;-2.10;99.90
23550;DHT22;11953;49.010;8.608;2022-12-18T11:04:08;-2.00;99.90
23550;DHT22;11953;49.010;8.608;2022-12-18T11:06:57;-2.00;99.90
23550;DHT22;11953;49.010;8.608;2022-12-18T11:10:03;-1.80;99.90
23550;DHT22;11953;49.010;8.608;2022-12-18T11:12:52;-1.80;99.90
23550;DHT22;11953;49.010;8.608;2022-12-18T11:15:40;-1.70;99.90
23550;DHT22;11953;49.010;8.608;2022-12-18T11:18:30;-1.50;99.90
23550;DHT22;11953;49.010;8.608;2022-12-18T11:21:18;-1.40;99.90
23550;DHT22;11953;49.010;8.608;2022-12-18T11:24:07;-1.40;99.90
23550;DHT22;11953;49.010;8.608;2022-12-18T11:27:04;-1.50;99.90
23550;DHT22;11953;49.010;8.608;2022-12-18T11:29:52;-1.50;99.90
23550;DHT22;11953;49.010;8.608;2022-12-18T11:32:41;-1.40;99.90
23550;DHT22;11953;49.010;8.608;2022-12-18T11:35:43;-1.40;99.90
23550;DHT22;11953;49.010;8.608;2022-12-18T11:38:33;-1.20;99.90
23550;DHT22;11953;49.010;8.608;2022-12-18T11:41:25;-1.00;99.90
23550;DHT22;11953;49.010;8.608;2022-12-18T11:44:41;-0.90;99.90
23550;DHT22;11953;49.010;8.608;2022-12-18T11:47:37;-0.80;99.90
23550;DHT22;11953;49.010;8.608;2022-12-18T11:50:26;-0.70;99.90
23550;DHT22;11953;49.010;8.608;2022-12-18T11:53:15;-0.80;99.90
23550;DHT22;11953;49.010;8.608;2022-12-18T11:56:16;-0.80;99.90
23550;DHT22;11953;49.010;8.608;2022-12-18T11:59:14;-0.80;99.90
23550;DHT22;11953;49.010;8.608;2022-12-18T12:02:20;-0.80;99.90
23550;DHT22;11953;49.010;8.608;2022-12-18T12:05:25;-0.70;99.90
23550;DHT22;11953;49.010;8.608;2022-12-18T12:08:20;-0.60;99.90
23550;DHT22;11953;49.010;8.608;2022-12-18T12:11:12;-0.50;99.90
23550;DHT22;11953;49.010;8.608;2022-12-18T12:14:15;-0.50;99.90
23550;DHT22;11953;49.010;8.608;2022-12-18T12:17:13;-0.70;99.90
23550;DHT22;11953;49.010;8.608;2022-12-18T12:20:08;-0.80;99.90
23550;DHT22;11953;49.010;8.608;2022-12-18T12:23:03;-0.70;99.90
23550;DHT22;11953;49.010;8.608;2022-12-18T12:25:56;-0.70;99.90
23550;DHT22;11953;49.010;8.608;2022-12-18T12:32:16;-0.60;99.90
23550;DHT22;11953;49.010;8.608;2022-12-18T12:35:17;-0.70;99.90
23550;DHT22;11953;49.010;8.608;2022-12-18T12:38:13;-0.90;99.90
23550;DHT22;11953;49.010;8.608;2022-12-18T12:41:03;-0.80;99.90
23550;DHT22;11953;49.010;8.608;2022-12-18T12:43:51;-0.60;99.90
23550;DHT22;11953;49.010;8.608;2022-12-18T12:46:40;-0.50;99.90
23550;DHT22;11953;49.010;8.608;2022-12-18T12:49:30;-0.50;99.90
23550;DHT22;11953;49.010;8.608;2022-12-18T12:52:32;-0.60;99.90
23550;DHT22;11953;49.010;8.608;2022-12-18T12:55:24;-0.70;99.90
23550;DHT22;11953;49.010;8.608;2022-12-18T12:58:15;-0.70;99.90
23550;DHT22;11953;49.010;8.608;2022-12-18T13:01:12;-0.60;99.90
23550;DHT22;11953;49.010;8.608;2022-12-18T13:04:14;-0.40;99.90
23550;DHT22;11953;49.010;8.608;2022-12-18T13:07:06;-0.30;99.90
23550;DHT22;11953;49.010;8.608;2022-12-18T13:13:18;-0.20;99.90
23550;DHT22;11953;49.010;8.608;2022-12-18T13:16:08;-0.10;99.90
23550;DHT22;11953;49.010;8.608;2022-12-18T13:18:57;-0.10;99.90
23550;DHT22;11953;49.010;8.608;2022-12-18T13:21:53;-0.10;99.90
23550;DHT22;11953;49.010;8.608;2022-12-18T13:24:40;-0.10;99.90
23550;DHT22;11953;49.010;8.608;2022-12-18T13:27:55;-0.10;99.90
23550;DHT22;11953;49.010;8.608;2022-12-18T13:30:47;-0.10;99.90
23550;DHT22;11953;49.010;8.608;2022-12-18T13:33:42;-0.20;99.90
23550;DHT22;11953;49.010;8.608;2022-12-18T13:36:49;-0.10;99.90
23550;DHT22;11953;49.010;8.608;2022-12-18T13:39:37;-0.20;99.90
23550;DHT22;11953;49.010;8.608;2022-12-18T13:42:39;-0.50;99.90
23550;DHT22;11953;49.010;8.608;2022-12-18T13:45:47;-0.80;99.90
23550;DHT22;11953;49.010;8.608;2022-12-18T13:48:36;-0.90;99.90
23550;DHT22;11953;49.010;8.608;2022-12-18T13:51:26;-0.90;99.90
23550;DHT22;11953;49.010;8.608;2022-12-18T13:54:18;-1.00;99.90
23550;DHT22;11953;49.010;8.608;2022-12-18T13:57:26;-1.10;99.90
23550;DHT22;11953;49.010;8.608;2022-12-18T14:00:25;-1.30;99.90
23550;DHT22;11953;49.010;8.608;2022-12-18T14:03:23;-1.40;99.90
23550;DHT22;11953;49.010;8.608;2022-12-18T14:06:12;-1.60;99.90
23550;DHT22;11953;49.010;8.608;2022-12-18T14:08:59;-1.50;99.90
23550;DHT22;11953;49.010;8.608;2022-12-18T14:11:47;-1.50;99.90
23550;DHT22;11953;49.010;8.608;2022-12-18T14:14:36;-1.60;99.90
23550;DHT22;11953;49.010;8.608;2022-12-18T14:17:23;-1.60;99.90
23550;DHT22;11953;49.010;8.608;2022-12-18T14:20:15;-1.60;99.90
23550;DHT22;11953;49.010;8.608;2022-12-18T14:23:03;-1.60;99.90
23550;DHT22;11953;49.010;8.608;2022-12-18T14:25:50;-1.60;99.90
23550;DHT22;11953;49.010;8.608;2022-12-18T14:28:43;-1.60;99.90
23550;DHT22;11953;49.010;8.608;2022-12-18T14:31:30;-1.60;99.90
23550;DHT22;11953;49.010;8.608;2022-12-18T14:34:18;-1.50;99.90
23550;DHT22;11953;49.010;8.608;2022-12-18T14:37:07;-1.60;99.90
23550;DHT22;11953;49.010;8.608;2022-12-18T14:39:57;-1.60;99.90
23550;DHT22;11953;49.010;8.608;2022-12-18T14:42:43;-1.60;99.90
23550;DHT22;11953;49.010;8.608;2022-12-18T14:45:36;-1.60;99.90
23550;DHT22;11953;49.010;8.608;2022-12-18T14:48:35;-1.60;99.90
23550;DHT22;11953;49.010;8.608;2022-12-18T14:51:27;-1.60;99.90
23550;DHT22;11953;49.010;8.608;2022-12-18T14:54:17;-1.60;99.90
23550;DHT22;11953;49.010;8.608;2022-12-18T14:57:06;-1.50;99.90
23550;DHT22;11953;49.010;8.608;2022-12-18T15:00:04;-1.50;99.90
23550;DHT22;11953;49.010;8.608;2022-12-18T15:02:54;-1.60;99.90
23550;DHT22;11953;49.010;8.608;2022-12-18T15:05:42;-1.60;99.90
23550;DHT22;11953;49.010;8.608;2022-12-18T15:08:31;-1.70;99.90
23550;DHT22;11953;49.010;8.608;2022-12-18T15:11:33;-1.70;99.90
23550;DHT22;11953;49.010;8.608;2022-12-18T15:14:35;-1.80;99.90
23550;DHT22;11953;49.010;8.608;2022-12-18T15:17:24;-1.80;99.90
23550;DHT22;11953;49.010;8.608;2022-12-18T15:20:11;-1.80;99.90
23550;DHT22;11953;49.010;8.608;2022-12-18T15:22:59;-1.80;99.90
23550;DHT22;11953;49.010;8.608;2022-12-18T15:25:46;-1.80;99.90
23550;DHT22;11953;49.010;8.608;2022-12-18T15:28:37;-1.80;99.90
23550;DHT22;11953;49.010;8.608;2022-12-18T15:31:29;-1.90;99.90
23550;DHT22;11953;49.010;8.608;2022-12-18T15:34:19;-1.90;99.90
23550;DHT22;11953;49.010;8.608;2022-12-18T15:37:07;-1.90;99.90
23550;DHT22;11953;49.010;8.608;2022-12-18T15:39:54;-1.90;99.90
23550;DHT22;11953;49.010;8.608;2022-12-18T15:42:40;-1.90;99.90
23550;DHT22;11953;49.010;8.608;2022-12-18T15:45:47;-1.90;99.90
23550;DHT22;11953;49.010;8.608;2022-12-18T15:48:35;-1.90;99.90
23550;DHT22;11953;49.010;8.608;2022-12-18T15:51:27;-2.00;99.90
23550;DHT22;11953;49.010;8.608;2022-12-18T15:54:14;-2.00;99.90
23550;DHT22;11953;49.010;8.608;2022-12-18T15:57:02;-1.90;99.90
23550;DHT22;11953;49.010;8.608;2022-12-18T16:00:12;-1.90;99.90
23550;DHT22;11953;49.010;8.608;2022-12-18T16:03:00;-2.00;99.90
23550;DHT22;11953;49.010;8.608;2022-12-18T16:05:47;-1.90;99.90
23550;DHT22;11953;49.010;8.608;2022-12-18T16:08:34;-2.00;99.90
23550;DHT22;11953;49.010;8.608;2022-12-18T16:11:23;-2.00;99.90
23550;DHT22;11953;49.010;8.608;2022-12-18T16:14:25;-2.00;99.90
23550;DHT22;11953;49.010;8.608;2022-12-18T16:17:12;-2.00;99.90
23550;DHT22;11953;49.010;8.608;2022-12-18T16:20:00;-2.00;99.90
23550;DHT22;11953;49.010;8.608;2022-12-18T16:22:48;-1.90;99.90
23550;DHT22;11953;49.010;8.608;2022-12-18T16:25:34;-1.90;99.90
23550;DHT22;11953;49.010;8.608;2022-12-18T16:28:21;-1.90;99.90
23550;DHT22;11953;49.010;8.608;2022-12-18T16:31:08;-1.90;99.90
23550;DHT22;11953;49.010;8.608;2022-12-18T16:34:10;-1.90;99.90
23550;DHT22;11953;49.010;8.608;2022-12-18T16:36:59;-1.90;99.90
23550;DHT22;11953;49.010;8.608;2022-12-18T16:39:50;-1.80;99.90
23550;DHT22;11953;49.010;8.608;2022-12-18T16:42:37;-1.70;99.90
23550;DHT22;11953;49.010;8.608;2022-12-18T16:45:24;-1.80;99.90
23550;DHT22;11953;49.010;8.608;2022-12-18T16:48:11;-1.70;99.90
23550;DHT22;11953;49.010;8.608;2022-12-18T16:51:00;-1.70;99.90
23550;DHT22;11953;49.010;8.608;2022-12-18T16:53:49;-1.70;99.90
23550;DHT22;11953;49.010;8.608;2022-12-18T16:56:36;-1.80;99.90
23550;DHT22;11953;49.010;8.608;2022-12-18T16:59:23;-1.80;99.90
23550;DHT22;11953;49.010;8.608;2022-12-18T17:02:12;-1.80;99.90
23550;DHT22;11953;49.010;8.608;2022-12-18T17:05:04;-1.70;99.90
23550;DHT22;11953;49.010;8.608;2022-12-18T17:07:51;-1.70;99.90
23550;DHT22;11953;49.010;8.608;2022-12-18T17:10:39;-1.70;99.90
23550;DHT22;11953;49.010;8.608;2022-12-18T17:13:26;-1.60;99.90
23550;DHT22;11953;49.010;8.608;2022-12-18T17:16:12;-1.60;99.90
23550;DHT22;11953;49.010;8.608;2022-12-18T17:18:59;-1.60;99.90
23550;DHT22;11953;49.010;8.608;2022-12-18T17:21:48;-1.60;99.90
23550;DHT22;11953;49.010;8.608;2022-12-18T17:24:35;-1.70;99.90
23550;DHT22;11953;49.010;8.608;2022-12-18T17:27:23;-1.80;99.90
23550;DHT22;11953;49.010;8.608;2022-12-18T17:30:10;-1.80;99.90
23550;DHT22;11953;49.010;8.608;2022-12-18T17:32:57;-1.80;99.90
23550;DHT22;11953;49.010;8.608;2022-12-18T17:35:43;-1.70;99.90
23550;DHT22;11953;49.010;8.608;2022-12-18T17:38:32;-1.70;99.90
23550;DHT22;11953;49.010;8.608;2022-12-18T17:41:19;-1.70;99.90
23550;DHT22;11953;49.010;8.608;2022-12-18T17:44:08;-1.70;99.90
23550;DHT22;11953;49.010;8.608;2022-12-18T17:46:54;-1.60;99.90
23550;DHT22;11953;49.010;8.608;2022-12-18T17:49:41;-1.60;99.90
23550;DHT22;11953;49.010;8.608;2022-12-18T17:52:28;-1.70;99.90
23550;DHT22;11953;49.010;8.608;2022-12-18T17:55:14;-1.70;99.90
23550;DHT22;11953;49.010;8.608;2022-12-18T17:58:00;-1.70;99.90
23550;DHT22;11953;49.010;8.608;2022-12-18T18:00:49;-1.70;99.90
23550;DHT22;11953;49.010;8.608;2022-12-18T18:03:36;-1.80;99.90